sensor_id;sensor_type;location;lat;lon;timestamp;temperature;humidity
26503;DHT22;14177;51.520;6.764;2022-08-21T00:00:27;18.80;85.00
26503;DHT22;14177;51.520;6.764;2022-08-21T00:03:14;18.70;85.10
26503;DHT22;14177;51.520;6.764;2022-08-21T00:05:46;18.70;85.10
26503;DHT22;14177;51.520;6.764;2022-08-21T00:08:20;18.70;85.00
26503;DHT22;14177;51.520;6.764;2022-08-21T00:10:47;18.60;85.30
26503;DHT22;14177;51.520;6.764;2022-08-21T00:13:16;18.60;85.60
26503;DHT22;14177;51.520;6.764;2022-08-21T00:15:47;18.50;85.90
26503;DHT22;14177;51.520;6.764;2022-08-21T00:18:16;18.50;86.00
26503;DHT22;14177;51.520;6.764;2022-08-21T00:20:44;18.50;86.20
26503;DHT22;14177;51.520;6.764;2022-08-21T00:23:13;18.40;85.90
26503;DHT22;14177;51.520;6.764;2022-08-21T00:25:41;18.40;86.10
26503;DHT22;14177;51.520;6.764;2022-08-21T00:28:10;18.30;86.40
26503;DHT22;14177;51.520;6.764;2022-08-21T00:30:38;18.30;86.40
26503;DHT22;14177;51.520;6.764;2022-08-21T00:33:10;18.20;86.50
26503;DHT22;14177;51.520;6.764;2022-08-21T00:35:39;18.20;86.50
26503;DHT22;14177;51.520;6.764;2022-08-21T00:38:09;18.20;86.60
26503;DHT22;14177;51.520;6.764;2022-08-21T00:40:47;18.10;87.00
26503;DHT22;14177;51.520;6.764;2022-08-21T00:43:19;18.00;87.40
26503;DHT22;14177;51.520;6.764;2022-08-21T00:45:49;17.90;87.60
26503;DHT22;14177;51.520;6.764;2022-08-21T00:48:17;17.80;87.50
26503;DHT22;14177;51.520;6.764;2022-08-21T00:50:48;17.80;87.80
26503;DHT22;14177;51.520;6.764;2022-08-21T00:53:18;17.80;88.00
26503;DHT22;14177;51.520;6.764;2022-08-21T00:55:46;17.70;87.80
26503;DHT22;14177;51.520;6.764;2022-08-21T00:58:15;17.70;87.80
26503;DHT22;14177;51.520;6.764;2022-08-21T01:00:47;17.70;87.80
26503;DHT22;14177;51.520;6.764;2022-08-21T01:03:18;17.70;87.80
26503;DHT22;14177;51.520;6.764;2022-08-21T01:05:50;17.70;87.90
26503;DHT22;14177;51.520;6.764;2022-08-21T01:08:18;17.60;87.70
26503;DHT22;14177;51.520;6.764;2022-08-21T01:10:47;17.60;87.80
26503;DHT22;14177;51.520;6.764;2022-08-21T01:13:25;17.60;87.90
26503;DHT22;14177;51.520;6.764;2022-08-21T01:15:55;17.50;88.00
26503;DHT22;14177;51.520;6.764;2022-08-21T01:18:26;17.50;87.90
26503;DHT22;14177;51.520;6.764;2022-08-21T01:24:04;17.40;88.20
26503;DHT22;14177;51.520;6.764;2022-08-21T01:26:35;17.30;88.60
26503;DHT22;14177;51.520;6.764;2022-08-21T01:31:37;17.20;89.10
26503;DHT22;14177;51.520;6.764;2022-08-21T01:34:05;17.20;89.70
26503;DHT22;14177;51.520;6.764;2022-08-21T01:36:33;17.10;89.20
26503;DHT22;14177;51.520;6.764;2022-08-21T01:39:08;17.00;89.60
26503;DHT22;14177;51.520;6.764;2022-08-21T01:41:35;17.00;89.40
26503;DHT22;14177;51.520;6.764;2022-08-21T01:44:03;17.00;89.70
26503;DHT22;14177;51.520;6.764;2022-08-21T01:46:30;16.90;89.70
26503;DHT22;14177;51.520;6.764;2022-08-21T01:48:58;16.90;89.90
26503;DHT22;14177;51.520;6.764;2022-08-21T01:51:25;16.80;90.10
26503;DHT22;14177;51.520;6.764;2022-08-21T01:53:52;16.80;90.00
26503;DHT22;14177;51.520;6.764;2022-08-21T01:56:19;16.80;90.00
26503;DHT22;14177;51.520;6.764;2022-08-21T01:58:47;16.80;90.10
26503;DHT22;14177;51.520;6.764;2022-08-21T02:01:14;16.80;90.20
26503;DHT22;14177;51.520;6.764;2022-08-21T02:03:42;16.70;90.10
26503;DHT22;14177;51.520;6.764;2022-08-21T02:06:14;16.70;90.10
26503;DHT22;14177;51.520;6.764;2022-08-21T02:08:44;16.70;90.20
26503;DHT22;14177;51.520;6.764;2022-08-21T02:11:12;16.70;90.10
26503;DHT22;14177;51.520;6.764;2022-08-21T02:13:39;16.70;90.10
26503;DHT22;14177;51.520;6.764;2022-08-21T02:16:06;16.70;90.10
26503;DHT22;14177;51.520;6.764;2022-08-21T02:18:34;16.60;90.20
26503;DHT22;14177;51.520;6.764;2022-08-21T02:21:03;16.60;90.30
26503;DHT22;14177;51.520;6.764;2022-08-21T02:23:31;16.60;90.30
26503;DHT22;14177;51.520;6.764;2022-08-21T02:26:01;16.60;90.30
26503;DHT22;14177;51.520;6.764;2022-08-21T02:28:33;16.60;90.20
26503;DHT22;14177;51.520;6.764;2022-08-21T02:31:01;16.60;90.30
26503;DHT22;14177;51.520;6.764;2022-08-21T02:33:28;16.60;90.20
26503;DHT22;14177;51.520;6.764;2022-08-21T02:35:56;16.60;90.20
26503;DHT22;14177;51.520;6.764;2022-08-21T02:38:26;16.60;90.30
26503;DHT22;14177;51.520;6.764;2022-08-21T02:40:57;16.60;90.40
26503;DHT22;14177;51.520;6.764;2022-08-21T02:43:25;16.60;90.50
26503;DHT22;14177;51.520;6.764;2022-08-21T02:45:55;16.50;90.60
26503;DHT22;14177;51.520;6.764;2022-08-21T02:48:33;16.60;90.60
26503;DHT22;14177;51.520;6.764;2022-08-21T02:51:04;16.50;90.60
26503;DHT22;14177;51.520;6.764;2022-08-21T02:53:33;16.50;90.60
26503;DHT22;14177;51.520;6.764;2022-08-21T02:56:03;16.50;90.60
26503;DHT22;14177;51.520;6.764;2022-08-21T02:58:53;16.40;90.60
26503;DHT22;14177;51.520;6.764;2022-08-21T03:01:21;16.50;90.50
26503;DHT22;14177;51.520;6.764;2022-08-21T03:03:48;16.40;90.50
26503;DHT22;14177;51.520;6.764;2022-08-21T03:06:21;16.40;90.50
26503;DHT22;14177;51.520;6.764;2022-08-21T03:08:48;16.40;90.60
26503;DHT22;14177;51.520;6.764;2022-08-21T03:11:17;16.30;90.60
26503;DHT22;14177;51.520;6.764;2022-08-21T03:13:47;16.30;90.60
26503;DHT22;14177;51.520;6.764;2022-08-21T03:16:29;16.30;90.60
26503;DHT22;14177;51.520;6.764;2022-08-21T03:19:02;16.30;90.60
26503;DHT22;14177;51.520;6.764;2022-08-21T03:21:29;16.20;90.60
26503;DHT22;14177;51.520;6.764;2022-08-21T03:23:57;16.20;90.60
26503;DHT22;14177;51.520;6.764;2022-08-21T03:26:24;16.20;90.60
26503;DHT22;14177;51.520;6.764;2022-08-21T03:28:53;16.20;90.70
26503;DHT22;14177;51.520;6.764;2022-08-21T03:31:21;16.10;90.70
26503;DHT22;14177;51.520;6.764;2022-08-21T03:33:48;16.10;90.70
26503;DHT22;14177;51.520;6.764;2022-08-21T03:36:15;16.10;90.60
26503;DHT22;14177;51.520;6.764;2022-08-21T03:38:42;16.10;90.70
26503;DHT22;14177;51.520;6.764;2022-08-21T03:41:09;16.10;90.70
26503;DHT22;14177;51.520;6.764;2022-08-21T03:43:36;16.10;90.70
26503;DHT22;14177;51.520;6.764;2022-08-21T03:46:05;16.10;90.60
26503;DHT22;14177;51.520;6.764;2022-08-21T03:48:35;16.10;90.70
26503;DHT22;14177;51.520;6.764;2022-08-21T03:51:04;16.10;90.70
26503;DHT22;14177;51.520;6.764;2022-08-21T03:53:33;16.10;90.70
26503;DHT22;14177;51.520;6.764;2022-08-21T03:56:00;16.00;90.70
26503;DHT22;14177;51.520;6.764;2022-08-21T03:58:28;16.00;90.80
26503;DHT22;14177;51.520;6.764;2022-08-21T04:00:58;16.00;90.90
26503;DHT22;14177;51.520;6.764;2022-08-21T04:03:27;15.90;91.00
26503;DHT22;14177;51.520;6.764;2022-08-21T04:05:55;15.90;91.00
26503;DHT22;14177;51.520;6.764;2022-08-21T04:08:23;15.90;90.90
26503;DHT22;14177;51.520;6.764;2022-08-21T04:10:53;15.90;90.90
26503;DHT22;14177;51.520;6.764;2022-08-21T04:13:22;15.90;91.00
26503;DHT22;14177;51.520;6.764;2022-08-21T04:15:49;15.90;91.00
26503;DHT22;14177;51.520;6.764;2022-08-21T04:18:17;15.90;91.00
26503;DHT22;14177;51.520;6.764;2022-08-21T04:20:45;15.80;91.10
26503;DHT22;14177;51.520;6.764;2022-08-21T04:23:17;15.80;91.20
26503;DHT22;14177;51.520;6.764;2022-08-21T04:25:54;15.80;91.30
26503;DHT22;14177;51.520;6.764;2022-08-21T04:28:23;15.80;91.40
26503;DHT22;14177;51.520;6.764;2022-08-21T04:30:56;15.80;91.40
26503;DHT22;14177;51.520;6.764;2022-08-21T04:33:23;15.80;91.40
26503;DHT22;14177;51.520;6.764;2022-08-21T04:35:51;15.80;91.40
26503;DHT22;14177;51.520;6.764;2022-08-21T04:38:21;15.90;91.40
26503;DHT22;14177;51.520;6.764;2022-08-21T04:40:49;15.80;91.30
26503;DHT22;14177;51.520;6.764;2022-08-21T04:43:16;15.80;91.20
26503;DHT22;14177;51.520;6.764;2022-08-21T04:45:46;15.80;91.20
26503;DHT22;14177;51.520;6.764;2022-08-21T04:48:16;15.80;91.30
26503;DHT22;14177;51.520;6.764;2022-08-21T04:51:11;15.80;91.30
26503;DHT22;14177;51.520;6.764;2022-08-21T04:53:52;15.80;91.30
26503;DHT22;14177;51.520;6.764;2022-08-21T04:56:25;15.80;91.30
26503;DHT22;14177;51.520;6.764;2022-08-21T04:58:58;15.80;91.40
26503;DHT22;14177;51.520;6.764;2022-08-21T05:01:31;15.80;91.30
26503;DHT22;14177;51.520;6.764;2022-08-21T05:04:02;15.80;91.40
26503;DHT22;14177;51.520;6.764;2022-08-21T05:06:35;15.80;91.40
26503;DHT22;14177;51.520;6.764;2022-08-21T05:09:04;15.80;91.40
26503;DHT22;14177;51.520;6.764;2022-08-21T05:11:32;15.90;91.50
26503;DHT22;14177;51.520;6.764;2022-08-21T05:13:59;15.90;91.50
26503;DHT22;14177;51.520;6.764;2022-08-21T05:16:26;15.90;91.60
26503;DHT22;14177;51.520;6.764;2022-08-21T05:19:04;15.90;91.50
26503;DHT22;14177;51.520;6.764;2022-08-21T05:21:34;16.00;91.50
26503;DHT22;14177;51.520;6.764;2022-08-21T05:24:02;16.00;91.40
26503;DHT22;14177;51.520;6.764;2022-08-21T05:26:30;16.00;91.40
26503;DHT22;14177;51.520;6.764;2022-08-21T05:29:10;16.00;91.40
26503;DHT22;14177;51.520;6.764;2022-08-21T05:31:38;16.10;91.50
26503;DHT22;14177;51.520;6.764;2022-08-21T05:34:06;16.20;91.50
26503;DHT22;14177;51.520;6.764;2022-08-21T05:36:33;16.20;91.50
26503;DHT22;14177;51.520;6.764;2022-08-21T05:39:00;16.30;91.60
26503;DHT22;14177;51.520;6.764;2022-08-21T05:41:32;16.40;91.60
26503;DHT22;14177;51.520;6.764;2022-08-21T05:44:00;16.40;91.60
26503;DHT22;14177;51.520;6.764;2022-08-21T05:46:27;16.50;91.50
26503;DHT22;14177;51.520;6.764;2022-08-21T05:48:54;16.50;91.60
26503;DHT22;14177;51.520;6.764;2022-08-21T05:51:21;16.60;91.60
26503;DHT22;14177;51.520;6.764;2022-08-21T05:53:48;16.70;91.50
26503;DHT22;14177;51.520;6.764;2022-08-21T05:56:15;16.80;91.70
26503;DHT22;14177;51.520;6.764;2022-08-21T05:58:42;16.90;91.30
26503;DHT22;14177;51.520;6.764;2022-08-21T06:01:10;17.00;91.10
26503;DHT22;14177;51.520;6.764;2022-08-21T06:03:39;17.10;90.80
26503;DHT22;14177;51.520;6.764;2022-08-21T06:06:07;17.20;90.40
26503;DHT22;14177;51.520;6.764;2022-08-21T06:08:34;17.30;90.30
26503;DHT22;14177;51.520;6.764;2022-08-21T06:11:02;17.40;90.00
26503;DHT22;14177;51.520;6.764;2022-08-21T06:13:30;17.50;89.50
26503;DHT22;14177;51.520;6.764;2022-08-21T06:18:35;17.70;88.80
26503;DHT22;14177;51.520;6.764;2022-08-21T06:21:07;17.70;87.90
26503;DHT22;14177;51.520;6.764;2022-08-21T06:23:47;17.80;87.60
26503;DHT22;14177;51.520;6.764;2022-08-21T06:26:15;17.90;87.50
26503;DHT22;14177;51.520;6.764;2022-08-21T06:28:44;18.00;87.00
26503;DHT22;14177;51.520;6.764;2022-08-21T06:31:13;18.10;86.80
26503;DHT22;14177;51.520;6.764;2022-08-21T06:33:42;18.20;86.10
26503;DHT22;14177;51.520;6.764;2022-08-21T06:36:10;18.20;85.90
26503;DHT22;14177;51.520;6.764;2022-08-21T06:38:38;18.30;86.10
26503;DHT22;14177;51.520;6.764;2022-08-21T06:41:06;18.40;85.40
26503;DHT22;14177;51.520;6.764;2022-08-21T06:43:35;18.50;84.40
26503;DHT22;14177;51.520;6.764;2022-08-21T06:46:06;18.50;83.80
26503;DHT22;14177;51.520;6.764;2022-08-21T06:48:34;18.60;83.40
26503;DHT22;14177;51.520;6.764;2022-08-21T06:51:01;18.70;82.80
26503;DHT22;14177;51.520;6.764;2022-08-21T06:53:29;18.70;82.00
26503;DHT22;14177;51.520;6.764;2022-08-21T06:55:56;18.80;81.90
26503;DHT22;14177;51.520;6.764;2022-08-21T06:58:23;18.90;81.70
26503;DHT22;14177;51.520;6.764;2022-08-21T07:00:54;19.00;81.50
26503;DHT22;14177;51.520;6.764;2022-08-21T07:03:46;19.10;80.90
26503;DHT22;14177;51.520;6.764;2022-08-21T07:06:15;19.20;80.40
26503;DHT22;14177;51.520;6.764;2022-08-21T07:08:44;19.30;80.10
26503;DHT22;14177;51.520;6.764;2022-08-21T07:11:17;19.50;79.80
26503;DHT22;14177;51.520;6.764;2022-08-21T07:13:45;19.70;79.60
26503;DHT22;14177;51.520;6.764;2022-08-21T07:16:12;19.80;79.00
26503;DHT22;14177;51.520;6.764;2022-08-21T07:18:39;19.80;78.30
26503;DHT22;14177;51.520;6.764;2022-08-21T07:21:07;19.90;76.80
26503;DHT22;14177;51.520;6.764;2022-08-21T07:23:44;20.00;77.00
26503;DHT22;14177;51.520;6.764;2022-08-21T07:26:15;20.00;76.50
26503;DHT22;14177;51.520;6.764;2022-08-21T07:28:43;20.10;76.00
26503;DHT22;14177;51.520;6.764;2022-08-21T07:31:14;20.00;75.90
26503;DHT22;14177;51.520;6.764;2022-08-21T07:33:42;20.10;76.10
26503;DHT22;14177;51.520;6.764;2022-08-21T07:36:13;20.20;75.60
26503;DHT22;14177;51.520;6.764;2022-08-21T07:38:58;20.30;75.00
26503;DHT22;14177;51.520;6.764;2022-08-21T07:41:27;20.30;75.70
26503;DHT22;14177;51.520;6.764;2022-08-21T07:43:56;20.50;74.60
26503;DHT22;14177;51.520;6.764;2022-08-21T07:46:26;20.60;74.70
26503;DHT22;14177;51.520;6.764;2022-08-21T07:48:53;20.70;72.90
26503;DHT22;14177;51.520;6.764;2022-08-21T07:51:24;20.80;73.00
26503;DHT22;14177;51.520;6.764;2022-08-21T07:53:55;20.80;73.30
26503;DHT22;14177;51.520;6.764;2022-08-21T07:56:24;20.90;72.70
26503;DHT22;14177;51.520;6.764;2022-08-21T07:58:51;21.00;73.00
26503;DHT22;14177;51.520;6.764;2022-08-21T08:01:19;21.10;72.20
26503;DHT22;14177;51.520;6.764;2022-08-21T08:03:46;21.20;70.30
26503;DHT22;14177;51.520;6.764;2022-08-21T08:06:13;21.30;70.90
26503;DHT22;14177;51.520;6.764;2022-08-21T08:08:43;21.50;70.60
26503;DHT22;14177;51.520;6.764;2022-08-21T08:11:11;21.50;69.10
26503;DHT22;14177;51.520;6.764;2022-08-21T08:13:43;21.60;68.80
26503;DHT22;14177;51.520;6.764;2022-08-21T08:16:13;21.80;67.90
26503;DHT22;14177;51.520;6.764;2022-08-21T08:18:41;21.90;67.80
26503;DHT22;14177;51.520;6.764;2022-08-21T08:21:09;22.00;68.40
26503;DHT22;14177;51.520;6.764;2022-08-21T08:23:38;22.30;67.70
26503;DHT22;14177;51.520;6.764;2022-08-21T08:26:36;22.40;67.10
26503;DHT22;14177;51.520;6.764;2022-08-21T08:29:12;22.60;67.80
26503;DHT22;14177;51.520;6.764;2022-08-21T08:31:48;22.80;66.10
26503;DHT22;14177;51.520;6.764;2022-08-21T08:34:17;22.90;64.80
26503;DHT22;14177;51.520;6.764;2022-08-21T08:36:51;22.70;65.00
26503;DHT22;14177;51.520;6.764;2022-08-21T08:39:21;22.80;64.60
26503;DHT22;14177;51.520;6.764;2022-08-21T08:45:20;22.80;65.50
26503;DHT22;14177;51.520;6.764;2022-08-21T08:47:56;23.10;64.30
26503;DHT22;14177;51.520;6.764;2022-08-21T08:50:52;23.30;64.20
26503;DHT22;14177;51.520;6.764;2022-08-21T08:53:33;23.60;62.80
26503;DHT22;14177;51.520;6.764;2022-08-21T08:56:04;23.80;62.80
26503;DHT22;14177;51.520;6.764;2022-08-21T08:58:37;23.80;62.00
26503;DHT22;14177;51.520;6.764;2022-08-21T09:01:19;23.90;63.20
26503;DHT22;14177;51.520;6.764;2022-08-21T09:03:47;24.20;61.80
26503;DHT22;14177;51.520;6.764;2022-08-21T09:06:32;24.30;61.30
26503;DHT22;14177;51.520;6.764;2022-08-21T09:12:16;24.20;60.70
26503;DHT22;14177;51.520;6.764;2022-08-21T09:18:13;24.20;60.90
26503;DHT22;14177;51.520;6.764;2022-08-21T09:21:26;24.50;61.20
26503;DHT22;14177;51.520;6.764;2022-08-21T09:24:12;24.80;60.90
26503;DHT22;14177;51.520;6.764;2022-08-21T09:29:31;25.40;59.70
26503;DHT22;14177;51.520;6.764;2022-08-21T09:32:00;25.40;59.30
26503;DHT22;14177;51.520;6.764;2022-08-21T09:34:32;25.80;60.20
26503;DHT22;14177;51.520;6.764;2022-08-21T09:37:17;26.20;57.90
26503;DHT22;14177;51.520;6.764;2022-08-21T09:39:44;26.40;57.70
26503;DHT22;14177;51.520;6.764;2022-08-21T09:42:22;26.70;56.70
26503;DHT22;14177;51.520;6.764;2022-08-21T09:45:15;26.70;55.10
26503;DHT22;14177;51.520;6.764;2022-08-21T09:47:44;26.70;55.40
26503;DHT22;14177;51.520;6.764;2022-08-21T09:50:16;26.80;55.20
26503;DHT22;14177;51.520;6.764;2022-08-21T09:52:58;26.80;54.70
26503;DHT22;14177;51.520;6.764;2022-08-21T09:55:33;27.10;55.50
26503;DHT22;14177;51.520;6.764;2022-08-21T09:58:31;27.10;54.00
26503;DHT22;14177;51.520;6.764;2022-08-21T10:01:03;26.90;53.90
26503;DHT22;14177;51.520;6.764;2022-08-21T10:03:32;26.80;53.20
26503;DHT22;14177;51.520;6.764;2022-08-21T10:06:06;26.90;52.90
26503;DHT22;14177;51.520;6.764;2022-08-21T10:08:38;27.00;52.00
26503;DHT22;14177;51.520;6.764;2022-08-21T10:11:12;27.10;52.20
26503;DHT22;14177;51.520;6.764;2022-08-21T10:13:50;27.00;52.50
26503;DHT22;14177;51.520;6.764;2022-08-21T10:16:30;27.30;52.60
26503;DHT22;14177;51.520;6.764;2022-08-21T10:24:57;27.70;50.30
26503;DHT22;14177;51.520;6.764;2022-08-21T10:27:43;27.80;50.60
26503;DHT22;14177;51.520;6.764;2022-08-21T10:36:11;28.10;49.40
26503;DHT22;14177;51.520;6.764;2022-08-21T10:39:34;28.00;49.70
26503;DHT22;14177;51.520;6.764;2022-08-21T10:47:05;28.20;49.10
26503;DHT22;14177;51.520;6.764;2022-08-21T10:50:59;28.30;49.60
26503;DHT22;14177;51.520;6.764;2022-08-21T11:01:03;28.90;47.40
26503;DHT22;14177;51.520;6.764;2022-08-21T11:06:58;29.00;46.90
26503;DHT22;14177;51.520;6.764;2022-08-21T11:09:45;29.00;47.00
26503;DHT22;14177;51.520;6.764;2022-08-21T11:15:37;28.80;46.70
26503;DHT22;14177;51.520;6.764;2022-08-21T11:24:19;28.80;46.50
26503;DHT22;14177;51.520;6.764;2022-08-21T11:29:58;28.90;47.80
26503;DHT22;14177;51.520;6.764;2022-08-21T11:35:34;29.00;46.40
26503;DHT22;14177;51.520;6.764;2022-08-21T11:44:17;28.30;48.00
26503;DHT22;14177;51.520;6.764;2022-08-21T11:47:15;28.60;47.90
26503;DHT22;14177;51.520;6.764;2022-08-21T11:50:06;29.20;46.10
26503;DHT22;14177;51.520;6.764;2022-08-21T11:53:08;29.20;45.80
26503;DHT22;14177;51.520;6.764;2022-08-21T11:55:42;29.30;46.80
26503;DHT22;14177;51.520;6.764;2022-08-21T11:58:26;29.50;44.90
26503;DHT22;14177;51.520;6.764;2022-08-21T12:01:05;29.50;45.10
26503;DHT22;14177;51.520;6.764;2022-08-21T12:03:40;29.60;45.00
26503;DHT22;14177;51.520;6.764;2022-08-21T12:06:32;29.90;44.80
26503;DHT22;14177;51.520;6.764;2022-08-21T12:09:05;30.00;43.70
26503;DHT22;14177;51.520;6.764;2022-08-21T12:11:59;29.80;45.30
26503;DHT22;14177;51.520;6.764;2022-08-21T12:15:03;29.60;45.20
26503;DHT22;14177;51.520;6.764;2022-08-21T12:17:55;29.90;45.80
26503;DHT22;14177;51.520;6.764;2022-08-21T12:20:34;30.20;45.40
26503;DHT22;14177;51.520;6.764;2022-08-21T12:23:14;30.30;44.50
26503;DHT22;14177;51.520;6.764;2022-08-21T12:26:10;30.30;45.00
26503;DHT22;14177;51.520;6.764;2022-08-21T12:28:47;30.60;45.10
26503;DHT22;14177;51.520;6.764;2022-08-21T12:31:23;30.90;43.80
26503;DHT22;14177;51.520;6.764;2022-08-21T12:33:58;31.00;43.10
26503;DHT22;14177;51.520;6.764;2022-08-21T12:36:42;30.70;43.50
26503;DHT22;14177;51.520;6.764;2022-08-21T12:39:15;30.80;44.20
26503;DHT22;14177;51.520;6.764;2022-08-21T12:42:10;30.60;42.80
26503;DHT22;14177;51.520;6.764;2022-08-21T12:44:48;30.30;44.20
26503;DHT22;14177;51.520;6.764;2022-08-21T12:50:37;30.30;45.10
26503;DHT22;14177;51.520;6.764;2022-08-21T12:56:21;30.60;43.50
26503;DHT22;14177;51.520;6.764;2022-08-21T12:59:07;30.40;43.80
26503;DHT22;14177;51.520;6.764;2022-08-21T13:01:45;30.30;44.60
26503;DHT22;14177;51.520;6.764;2022-08-21T13:04:18;30.40;44.80
26503;DHT22;14177;51.520;6.764;2022-08-21T13:06:49;30.40;43.50
26503;DHT22;14177;51.520;6.764;2022-08-21T13:09:26;30.10;44.70
26503;DHT22;14177;51.520;6.764;2022-08-21T13:11:55;30.00;44.50
26503;DHT22;14177;51.520;6.764;2022-08-21T13:14:38;29.90;44.90
26503;DHT22;14177;51.520;6.764;2022-08-21T13:17:22;29.80;44.90
26503;DHT22;14177;51.520;6.764;2022-08-21T13:20:35;29.70;44.80
26503;DHT22;14177;51.520;6.764;2022-08-21T13:23:35;29.50;45.00
26503;DHT22;14177;51.520;6.764;2022-08-21T13:26:16;29.80;45.70
26503;DHT22;14177;51.520;6.764;2022-08-21T13:28:46;29.90;44.80
26503;DHT22;14177;51.520;6.764;2022-08-21T13:31:29;30.10;44.20
26503;DHT22;14177;51.520;6.764;2022-08-21T13:33:57;30.30;44.00
26503;DHT22;14177;51.520;6.764;2022-08-21T13:36:29;30.50;43.10
26503;DHT22;14177;51.520;6.764;2022-08-21T13:39:03;30.40;43.40
26503;DHT22;14177;51.520;6.764;2022-08-21T13:41:35;30.50;44.00
26503;DHT22;14177;51.520;6.764;2022-08-21T13:46:49;30.60;44.00
26503;DHT22;14177;51.520;6.764;2022-08-21T13:49:20;30.70;43.40
26503;DHT22;14177;51.520;6.764;2022-08-21T13:51:53;30.70;42.80
26503;DHT22;14177;51.520;6.764;2022-08-21T13:54:23;30.70;42.10
26503;DHT22;14177;51.520;6.764;2022-08-21T13:56:53;30.50;42.00
26503;DHT22;14177;51.520;6.764;2022-08-21T13:59:32;30.10;41.80
26503;DHT22;14177;51.520;6.764;2022-08-21T14:02:14;29.70;43.00
26503;DHT22;14177;51.520;6.764;2022-08-21T14:07:35;29.40;43.10
26503;DHT22;14177;51.520;6.764;2022-08-21T14:10:06;29.10;43.90
26503;DHT22;14177;51.520;6.764;2022-08-21T14:12:43;28.80;44.10
26503;DHT22;14177;51.520;6.764;2022-08-21T14:15:17;28.50;44.90
26503;DHT22;14177;51.520;6.764;2022-08-21T14:17:45;28.30;46.70
26503;DHT22;14177;51.520;6.764;2022-08-21T14:20:29;28.20;44.50
26503;DHT22;14177;51.520;6.764;2022-08-21T14:22:59;27.90;45.50
26503;DHT22;14177;51.520;6.764;2022-08-21T14:25:47;27.90;45.60
26503;DHT22;14177;51.520;6.764;2022-08-21T14:28:29;27.90;46.10
26503;DHT22;14177;51.520;6.764;2022-08-21T14:31:16;28.00;46.10
26503;DHT22;14177;51.520;6.764;2022-08-21T14:33:45;28.30;46.30
26503;DHT22;14177;51.520;6.764;2022-08-21T14:36:14;28.30;46.10
26503;DHT22;14177;51.520;6.764;2022-08-21T14:38:42;28.50;46.30
26503;DHT22;14177;51.520;6.764;2022-08-21T14:41:18;28.70;45.90
26503;DHT22;14177;51.520;6.764;2022-08-21T14:43:51;29.10;46.00
26503;DHT22;14177;51.520;6.764;2022-08-21T14:46:33;29.60;45.20
26503;DHT22;14177;51.520;6.764;2022-08-21T14:49:11;30.00;44.40
26503;DHT22;14177;51.520;6.764;2022-08-21T14:51:40;30.30;43.60
26503;DHT22;14177;51.520;6.764;2022-08-21T14:54:20;30.10;43.00
26503;DHT22;14177;51.520;6.764;2022-08-21T14:56:58;29.70;43.80
26503;DHT22;14177;51.520;6.764;2022-08-21T14:59:29;29.40;44.70
26503;DHT22;14177;51.520;6.764;2022-08-21T15:01:56;29.50;43.50
26503;DHT22;14177;51.520;6.764;2022-08-21T15:04:23;29.50;43.90
26503;DHT22;14177;51.520;6.764;2022-08-21T15:06:50;29.70;44.00
26503;DHT22;14177;51.520;6.764;2022-08-21T15:09:17;29.80;43.70
26503;DHT22;14177;51.520;6.764;2022-08-21T15:11:44;30.00;43.10
26503;DHT22;14177;51.520;6.764;2022-08-21T15:14:20;29.90;43.00
26503;DHT22;14177;51.520;6.764;2022-08-21T15:16:50;29.60;43.20
26503;DHT22;14177;51.520;6.764;2022-08-21T15:19:18;29.30;43.60
26503;DHT22;14177;51.520;6.764;2022-08-21T15:21:45;29.00;43.50
26503;DHT22;14177;51.520;6.764;2022-08-21T15:24:13;28.90;43.80
26503;DHT22;14177;51.520;6.764;2022-08-21T15:26:40;28.80;43.60
26503;DHT22;14177;51.520;6.764;2022-08-21T15:29:08;28.80;43.70
26503;DHT22;14177;51.520;6.764;2022-08-21T15:31:36;28.80;43.90
26503;DHT22;14177;51.520;6.764;2022-08-21T15:34:03;29.00;44.40
26503;DHT22;14177;51.520;6.764;2022-08-21T15:36:30;29.30;44.50
26503;DHT22;14177;51.520;6.764;2022-08-21T15:38:57;29.60;42.60
26503;DHT22;14177;51.520;6.764;2022-08-21T15:41:23;29.60;43.20
26503;DHT22;14177;51.520;6.764;2022-08-21T15:43:52;29.60;42.90
26503;DHT22;14177;51.520;6.764;2022-08-21T15:46:20;29.50;42.60
26503;DHT22;14177;51.520;6.764;2022-08-21T15:48:47;29.30;42.80
26503;DHT22;14177;51.520;6.764;2022-08-21T15:51:16;29.20;43.00
26503;DHT22;14177;51.520;6.764;2022-08-21T15:53:44;29.20;42.60
26503;DHT22;14177;51.520;6.764;2022-08-21T15:56:27;29.30;43.10
26503;DHT22;14177;51.520;6.764;2022-08-21T15:59:05;29.60;42.00
26503;DHT22;14177;51.520;6.764;2022-08-21T16:01:35;29.60;42.10
26503;DHT22;14177;51.520;6.764;2022-08-21T16:04:18;29.60;41.50
26503;DHT22;14177;51.520;6.764;2022-08-21T16:06:48;29.60;42.20
26503;DHT22;14177;51.520;6.764;2022-08-21T16:09:21;29.50;40.90
26503;DHT22;14177;51.520;6.764;2022-08-21T16:11:48;29.30;41.40
26503;DHT22;14177;51.520;6.764;2022-08-21T16:14:17;29.10;41.70
26503;DHT22;14177;51.520;6.764;2022-08-21T16:16:44;28.80;42.20
26503;DHT22;14177;51.520;6.764;2022-08-21T16:19:12;28.70;42.60
26503;DHT22;14177;51.520;6.764;2022-08-21T16:21:40;28.70;43.20
26503;DHT22;14177;51.520;6.764;2022-08-21T16:24:07;28.50;42.60
26503;DHT22;14177;51.520;6.764;2022-08-21T16:26:34;28.50;42.00
26503;DHT22;14177;51.520;6.764;2022-08-21T16:29:03;28.30;41.70
26503;DHT22;14177;51.520;6.764;2022-08-21T16:31:32;28.20;42.40
26503;DHT22;14177;51.520;6.764;2022-08-21T16:34:00;28.30;42.70
26503;DHT22;14177;51.520;6.764;2022-08-21T16:36:28;28.30;42.10
26503;DHT22;14177;51.520;6.764;2022-08-21T16:38:56;28.20;41.20
26503;DHT22;14177;51.520;6.764;2022-08-21T16:41:28;28.00;41.40
26503;DHT22;14177;51.520;6.764;2022-08-21T16:43:59;27.70;41.70
26503;DHT22;14177;51.520;6.764;2022-08-21T16:46:28;27.40;42.70
26503;DHT22;14177;51.520;6.764;2022-08-21T16:48:59;27.40;43.90
26503;DHT22;14177;51.520;6.764;2022-08-21T16:51:27;27.40;44.40
26503;DHT22;14177;51.520;6.764;2022-08-21T16:53:54;27.40;44.80
26503;DHT22;14177;51.520;6.764;2022-08-21T16:56:21;27.60;44.90
26503;DHT22;14177;51.520;6.764;2022-08-21T16:58:50;27.60;44.50
26503;DHT22;14177;51.520;6.764;2022-08-21T17:01:23;27.70;44.40
26503;DHT22;14177;51.520;6.764;2022-08-21T17:03:53;27.60;44.30
26503;DHT22;14177;51.520;6.764;2022-08-21T17:06:22;27.60;44.60
26503;DHT22;14177;51.520;6.764;2022-08-21T17:08:55;27.50;44.30
26503;DHT22;14177;51.520;6.764;2022-08-21T17:11:45;27.30;44.50
26503;DHT22;14177;51.520;6.764;2022-08-21T17:14:18;27.00;45.10
26503;DHT22;14177;51.520;6.764;2022-08-21T17:16:51;26.90;45.20
26503;DHT22;14177;51.520;6.764;2022-08-21T17:19:20;26.90;45.50
26503;DHT22;14177;51.520;6.764;2022-08-21T17:21:48;26.80;45.80
26503;DHT22;14177;51.520;6.764;2022-08-21T17:24:18;26.70;45.60
26503;DHT22;14177;51.520;6.764;2022-08-21T17:26:52;26.70;45.80